sensor_id;sensor_type;location;lat;lon;timestamp;temperature;humidity
27671;DHT22;15077;49.704;9.908;2023-08-24T00:01:20;24.20;49.90
27671;DHT22;15077;49.704;9.908;2023-08-24T00:03:46;24.20;49.90
27671;DHT22;15077;49.704;9.908;2023-08-24T00:06:13;24.10;50.00
27671;DHT22;15077;49.704;9.908;2023-08-24T00:08:39;24.10;50.00
27671;DHT22;15077;49.704;9.908;2023-08-24T00:11:07;24.10;50.20
27671;DHT22;15077;49.704;9.908;2023-08-24T00:13:37;24.10;50.20
27671;DHT22;15077;49.704;9.908;2023-08-24T00:16:03;24.10;50.20
27671;DHT22;15077;49.704;9.908;2023-08-24T00:18:29;24.00;50.30
27671;DHT22;15077;49.704;9.908;2023-08-24T00:20:56;24.00;50.30
27671;DHT22;15077;49.704;9.908;2023-08-24T00:23:22;24.00;50.40
27671;DHT22;15077;49.704;9.908;2023-08-24T00:25:48;24.00;50.50
27671;DHT22;15077;49.704;9.908;2023-08-24T00:28:13;23.90;50.50
27671;DHT22;15077;49.704;9.908;2023-08-24T00:30:41;23.90;50.60
27671;DHT22;15077;49.704;9.908;2023-08-24T00:33:07;23.80;50.60
27671;DHT22;15077;49.704;9.908;2023-08-24T00:35:33;23.80;50.60
27671;DHT22;15077;49.704;9.908;2023-08-24T00:37:59;23.80;50.70
27671;DHT22;15077;49.704;9.908;2023-08-24T00:40:25;23.70;50.70
27671;DHT22;15077;49.704;9.908;2023-08-24T00:42:51;23.70;50.80
27671;DHT22;15077;49.704;9.908;2023-08-24T00:45:18;23.70;50.90
27671;DHT22;15077;49.704;9.908;2023-08-24T00:47:46;23.70;50.90
27671;DHT22;15077;49.704;9.908;2023-08-24T00:50:13;23.60;51.00
27671;DHT22;15077;49.704;9.908;2023-08-24T00:52:41;23.60;51.00
27671;DHT22;15077;49.704;9.908;2023-08-24T00:55:08;23.60;51.10
27671;DHT22;15077;49.704;9.908;2023-08-24T00:57:40;23.60;51.10
27671;DHT22;15077;49.704;9.908;2023-08-24T01:00:11;23.60;51.30
27671;DHT22;15077;49.704;9.908;2023-08-24T01:02:39;23.50;51.10
27671;DHT22;15077;49.704;9.908;2023-08-24T01:05:07;23.50;51.20
27671;DHT22;15077;49.704;9.908;2023-08-24T01:07:39;23.40;51.10
27671;DHT22;15077;49.704;9.908;2023-08-24T01:10:08;23.40;51.30
27671;DHT22;15077;49.704;9.908;2023-08-24T01:12:52;23.40;51.30
27671;DHT22;15077;49.704;9.908;2023-08-24T01:18:27;23.30;51.40
27671;DHT22;15077;49.704;9.908;2023-08-24T01:20:56;23.30;51.40
27671;DHT22;15077;49.704;9.908;2023-08-24T01:23:48;23.20;51.40
27671;DHT22;15077;49.704;9.908;2023-08-24T01:26:20;23.20;51.70
27671;DHT22;15077;49.704;9.908;2023-08-24T01:28:47;23.10;51.60
27671;DHT22;15077;49.704;9.908;2023-08-24T01:31:16;23.10;51.70
27671;DHT22;15077;49.704;9.908;2023-08-24T01:33:46;23.00;51.60
27671;DHT22;15077;49.704;9.908;2023-08-24T01:36:15;23.10;51.90
27671;DHT22;15077;49.704;9.908;2023-08-24T01:38:54;23.00;51.90
27671;DHT22;15077;49.704;9.908;2023-08-24T01:41:41;23.00;52.00
27671;DHT22;15077;49.704;9.908;2023-08-24T01:44:12;23.00;52.00
27671;DHT22;15077;49.704;9.908;2023-08-24T01:46:40;23.00;51.70
27671;DHT22;15077;49.704;9.908;2023-08-24T01:49:11;22.90;51.80
27671;DHT22;15077;49.704;9.908;2023-08-24T01:51:42;22.90;52.00
27671;DHT22;15077;49.704;9.908;2023-08-24T01:54:10;22.80;52.00
27671;DHT22;15077;49.704;9.908;2023-08-24T01:56:37;22.80;52.10
27671;DHT22;15077;49.704;9.908;2023-08-24T01:59:04;22.80;52.30
27671;DHT22;15077;49.704;9.908;2023-08-24T02:01:29;22.70;52.20
27671;DHT22;15077;49.704;9.908;2023-08-24T02:03:55;22.70;52.40
27671;DHT22;15077;49.704;9.908;2023-08-24T02:06:21;22.70;52.40
27671;DHT22;15077;49.704;9.908;2023-08-24T02:08:47;22.70;52.50
27671;DHT22;15077;49.704;9.908;2023-08-24T02:11:14;22.60;52.60
27671;DHT22;15077;49.704;9.908;2023-08-24T02:13:41;22.60;52.60
27671;DHT22;15077;49.704;9.908;2023-08-24T02:16:08;22.50;52.60
27671;DHT22;15077;49.704;9.908;2023-08-24T02:18:34;22.60;52.60
27671;DHT22;15077;49.704;9.908;2023-08-24T02:21:06;22.50;52.70
27671;DHT22;15077;49.704;9.908;2023-08-24T02:23:38;22.50;52.80
27671;DHT22;15077;49.704;9.908;2023-08-24T02:26:04;22.50;52.80
27671;DHT22;15077;49.704;9.908;2023-08-24T02:28:35;22.50;52.90
27671;DHT22;15077;49.704;9.908;2023-08-24T02:31:03;22.50;53.10
27671;DHT22;15077;49.704;9.908;2023-08-24T02:33:31;22.40;52.90
27671;DHT22;15077;49.704;9.908;2023-08-24T02:35:58;22.40;53.00
27671;DHT22;15077;49.704;9.908;2023-08-24T02:38:25;22.40;53.10
27671;DHT22;15077;49.704;9.908;2023-08-24T02:41:02;22.40;53.10
27671;DHT22;15077;49.704;9.908;2023-08-24T02:43:30;22.40;53.20
27671;DHT22;15077;49.704;9.908;2023-08-24T02:46:06;22.30;53.00
27671;DHT22;15077;49.704;9.908;2023-08-24T02:48:34;22.40;53.30
27671;DHT22;15077;49.704;9.908;2023-08-24T02:51:03;22.30;53.10
27671;DHT22;15077;49.704;9.908;2023-08-24T02:53:31;22.30;53.20
27671;DHT22;15077;49.704;9.908;2023-08-24T02:55:59;22.20;53.10
27671;DHT22;15077;49.704;9.908;2023-08-24T02:58:28;22.20;53.10
27671;DHT22;15077;49.704;9.908;2023-08-24T03:00:57;22.20;53.10
27671;DHT22;15077;49.704;9.908;2023-08-24T03:03:24;22.20;53.20
27671;DHT22;15077;49.704;9.908;2023-08-24T03:06:00;22.20;53.30
27671;DHT22;15077;49.704;9.908;2023-08-24T03:08:30;22.10;53.50
27671;DHT22;15077;49.704;9.908;2023-08-24T03:10:59;22.10;53.40
27671;DHT22;15077;49.704;9.908;2023-08-24T03:13:26;22.00;53.30
27671;DHT22;15077;49.704;9.908;2023-08-24T03:15:52;22.00;53.40
27671;DHT22;15077;49.704;9.908;2023-08-24T03:18:20;22.00;53.50
27671;DHT22;15077;49.704;9.908;2023-08-24T03:20:48;22.00;53.60
27671;DHT22;15077;49.704;9.908;2023-08-24T03:23:17;22.00;53.60
27671;DHT22;15077;49.704;9.908;2023-08-24T03:25:45;21.90;53.70
27671;DHT22;15077;49.704;9.908;2023-08-24T03:28:11;21.90;53.80
27671;DHT22;15077;49.704;9.908;2023-08-24T03:30:44;21.90;53.80
27671;DHT22;15077;49.704;9.908;2023-08-24T03:33:12;21.80;53.80
27671;DHT22;15077;49.704;9.908;2023-08-24T03:35:38;21.80;53.80
27671;DHT22;15077;49.704;9.908;2023-08-24T03:38:04;21.80;53.80
27671;DHT22;15077;49.704;9.908;2023-08-24T03:40:31;21.80;53.90
27671;DHT22;15077;49.704;9.908;2023-08-24T03:42:58;21.80;54.00
27671;DHT22;15077;49.704;9.908;2023-08-24T03:45:23;21.80;54.00
27671;DHT22;15077;49.704;9.908;2023-08-24T03:47:49;21.70;53.90
27671;DHT22;15077;49.704;9.908;2023-08-24T03:50:16;21.70;54.50
27671;DHT22;15077;49.704;9.908;2023-08-24T03:52:43;21.60;53.90
27671;DHT22;15077;49.704;9.908;2023-08-24T03:55:10;21.60;53.90
27671;DHT22;15077;49.704;9.908;2023-08-24T03:57:37;21.60;54.00
27671;DHT22;15077;49.704;9.908;2023-08-24T04:00:06;21.60;54.10
27671;DHT22;15077;49.704;9.908;2023-08-24T04:02:37;21.50;54.10
27671;DHT22;15077;49.704;9.908;2023-08-24T04:05:04;21.50;54.10
27671;DHT22;15077;49.704;9.908;2023-08-24T04:07:29;21.50;54.20
27671;DHT22;15077;49.704;9.908;2023-08-24T04:09:56;21.50;54.20
27671;DHT22;15077;49.704;9.908;2023-08-24T04:12:23;21.40;54.30
27671;DHT22;15077;49.704;9.908;2023-08-24T04:14:51;21.50;54.40
27671;DHT22;15077;49.704;9.908;2023-08-24T04:17:17;21.40;54.50
27671;DHT22;15077;49.704;9.908;2023-08-24T04:19:43;21.40;54.50
27671;DHT22;15077;49.704;9.908;2023-08-24T04:22:09;21.40;54.50
27671;DHT22;15077;49.704;9.908;2023-08-24T04:24:35;21.40;54.50
27671;DHT22;15077;49.704;9.908;2023-08-24T04:27:00;21.40;54.60
27671;DHT22;15077;49.704;9.908;2023-08-24T04:29:26;21.40;54.70
27671;DHT22;15077;49.704;9.908;2023-08-24T04:31:53;21.30;54.60
27671;DHT22;15077;49.704;9.908;2023-08-24T04:34:19;21.30;54.70
27671;DHT22;15077;49.704;9.908;2023-08-24T04:36:44;21.30;54.80
27671;DHT22;15077;49.704;9.908;2023-08-24T04:39:10;21.30;54.80
27671;DHT22;15077;49.704;9.908;2023-08-24T04:41:36;21.30;54.90
27671;DHT22;15077;49.704;9.908;2023-08-24T04:44:02;21.30;54.90
27671;DHT22;15077;49.704;9.908;2023-08-24T04:46:27;21.30;55.10
27671;DHT22;15077;49.704;9.908;2023-08-24T04:48:53;21.30;55.80
27671;DHT22;15077;49.704;9.908;2023-08-24T04:51:19;21.30;55.40
27671;DHT22;15077;49.704;9.908;2023-08-24T04:53:45;21.30;55.30
27671;DHT22;15077;49.704;9.908;2023-08-24T04:56:10;21.40;55.60
27671;DHT22;15077;49.704;9.908;2023-08-24T04:58:36;21.40;56.10
27671;DHT22;15077;49.704;9.908;2023-08-24T05:01:02;21.30;55.80
27671;DHT22;15077;49.704;9.908;2023-08-24T05:03:28;21.30;56.10
27671;DHT22;15077;49.704;9.908;2023-08-24T05:05:54;21.30;56.50
27671;DHT22;15077;49.704;9.908;2023-08-24T05:08:20;21.30;56.40
27671;DHT22;15077;49.704;9.908;2023-08-24T05:10:46;21.30;56.50
27671;DHT22;15077;49.704;9.908;2023-08-24T05:13:12;21.30;56.70
27671;DHT22;15077;49.704;9.908;2023-08-24T05:15:37;21.30;56.70
27671;DHT22;15077;49.704;9.908;2023-08-24T05:18:03;21.30;56.90
27671;DHT22;15077;49.704;9.908;2023-08-24T05:20:29;21.30;56.70
27671;DHT22;15077;49.704;9.908;2023-08-24T05:22:55;21.30;56.80
27671;DHT22;15077;49.704;9.908;2023-08-24T05:25:22;21.30;57.00
27671;DHT22;15077;49.704;9.908;2023-08-24T05:27:48;21.30;57.20
27671;DHT22;15077;49.704;9.908;2023-08-24T05:30:14;21.30;57.10
27671;DHT22;15077;49.704;9.908;2023-08-24T05:32:39;21.30;57.10
27671;DHT22;15077;49.704;9.908;2023-08-24T05:35:06;21.40;57.40
27671;DHT22;15077;49.704;9.908;2023-08-24T05:37:33;21.40;57.30
27671;DHT22;15077;49.704;9.908;2023-08-24T05:40:02;21.40;57.50
27671;DHT22;15077;49.704;9.908;2023-08-24T05:42:30;21.40;57.60
27671;DHT22;15077;49.704;9.908;2023-08-24T05:44:56;21.40;57.70
27671;DHT22;15077;49.704;9.908;2023-08-24T05:47:21;21.50;57.80
27671;DHT22;15077;49.704;9.908;2023-08-24T05:49:47;21.50;58.00
27671;DHT22;15077;49.704;9.908;2023-08-24T05:52:13;21.50;57.90
27671;DHT22;15077;49.704;9.908;2023-08-24T05:54:38;21.50;58.00
27671;DHT22;15077;49.704;9.908;2023-08-24T05:57:05;21.60;58.30
27671;DHT22;15077;49.704;9.908;2023-08-24T05:59:34;21.60;58.30
27671;DHT22;15077;49.704;9.908;2023-08-24T06:02:00;21.60;58.30
27671;DHT22;15077;49.704;9.908;2023-08-24T06:04:26;21.60;58.50
27671;DHT22;15077;49.704;9.908;2023-08-24T06:06:52;21.60;58.50
27671;DHT22;15077;49.704;9.908;2023-08-24T06:09:18;21.70;58.30
27671;DHT22;15077;49.704;9.908;2023-08-24T06:11:43;21.70;58.80
27671;DHT22;15077;49.704;9.908;2023-08-24T06:14:09;21.70;58.70
27671;DHT22;15077;49.704;9.908;2023-08-24T06:16:35;21.70;59.70
27671;DHT22;15077;49.704;9.908;2023-08-24T06:19:00;21.80;59.10
27671;DHT22;15077;49.704;9.908;2023-08-24T06:21:27;21.80;59.10
27671;DHT22;15077;49.704;9.908;2023-08-24T06:23:53;21.80;59.10
27671;DHT22;15077;49.704;9.908;2023-08-24T06:26:19;21.80;59.10
27671;DHT22;15077;49.704;9.908;2023-08-24T06:28:44;21.90;59.00
27671;DHT22;15077;49.704;9.908;2023-08-24T06:31:11;22.00;59.20
27671;DHT22;15077;49.704;9.908;2023-08-24T06:33:38;22.00;58.90
27671;DHT22;15077;49.704;9.908;2023-08-24T06:36:04;22.00;59.00
27671;DHT22;15077;49.704;9.908;2023-08-24T06:38:37;22.00;59.00
27671;DHT22;15077;49.704;9.908;2023-08-24T06:41:03;22.10;59.00
27671;DHT22;15077;49.704;9.908;2023-08-24T06:43:29;22.20;59.10
27671;DHT22;15077;49.704;9.908;2023-08-24T06:45:55;22.20;59.20
27671;DHT22;15077;49.704;9.908;2023-08-24T06:48:21;22.20;59.30
27671;DHT22;15077;49.704;9.908;2023-08-24T06:50:47;22.30;59.30
27671;DHT22;15077;49.704;9.908;2023-08-24T06:53:12;22.30;59.30
27671;DHT22;15077;49.704;9.908;2023-08-24T06:55:40;22.40;59.30
27671;DHT22;15077;49.704;9.908;2023-08-24T06:58:06;22.40;59.20
27671;DHT22;15077;49.704;9.908;2023-08-24T07:00:32;22.40;59.40
27671;DHT22;15077;49.704;9.908;2023-08-24T07:02:59;22.50;60.10
27671;DHT22;15077;49.704;9.908;2023-08-24T07:05:25;22.60;60.10
27671;DHT22;15077;49.704;9.908;2023-08-24T07:07:51;22.60;60.20
27671;DHT22;15077;49.704;9.908;2023-08-24T07:10:17;22.70;60.10
27671;DHT22;15077;49.704;9.908;2023-08-24T07:12:43;22.80;60.30
27671;DHT22;15077;49.704;9.908;2023-08-24T07:15:11;22.90;60.90
27671;DHT22;15077;49.704;9.908;2023-08-24T07:17:37;22.90;60.70
27671;DHT22;15077;49.704;9.908;2023-08-24T07:20:04;23.00;60.60
27671;DHT22;15077;49.704;9.908;2023-08-24T07:22:31;23.10;60.50
27671;DHT22;15077;49.704;9.908;2023-08-24T07:24:58;23.20;60.90
27671;DHT22;15077;49.704;9.908;2023-08-24T07:27:23;23.30;61.20
27671;DHT22;15077;49.704;9.908;2023-08-24T07:29:49;23.40;61.50
27671;DHT22;15077;49.704;9.908;2023-08-24T07:32:15;23.40;61.20
27671;DHT22;15077;49.704;9.908;2023-08-24T07:34:41;23.60;61.20
27671;DHT22;15077;49.704;9.908;2023-08-24T07:37:07;23.70;60.70
27671;DHT22;15077;49.704;9.908;2023-08-24T07:39:33;23.70;60.70
27671;DHT22;15077;49.704;9.908;2023-08-24T07:41:59;23.80;60.60
27671;DHT22;15077;49.704;9.908;2023-08-24T07:44:25;23.90;60.70
27671;DHT22;15077;49.704;9.908;2023-08-24T07:46:50;23.90;60.30
27671;DHT22;15077;49.704;9.908;2023-08-24T07:49:16;24.00;60.50
27671;DHT22;15077;49.704;9.908;2023-08-24T07:51:42;24.10;60.50
27671;DHT22;15077;49.704;9.908;2023-08-24T07:54:12;24.20;60.50
27671;DHT22;15077;49.704;9.908;2023-08-24T07:56:38;24.20;60.40
27671;DHT22;15077;49.704;9.908;2023-08-24T07:59:04;24.30;60.20
27671;DHT22;15077;49.704;9.908;2023-08-24T08:01:30;24.40;60.00
27671;DHT22;15077;49.704;9.908;2023-08-24T08:03:56;24.50;59.90
27671;DHT22;15077;49.704;9.908;2023-08-24T08:06:22;24.50;59.60
27671;DHT22;15077;49.704;9.908;2023-08-24T08:08:50;24.60;59.50
27671;DHT22;15077;49.704;9.908;2023-08-24T08:11:17;24.60;59.30
27671;DHT22;15077;49.704;9.908;2023-08-24T08:13:43;24.70;59.20
27671;DHT22;15077;49.704;9.908;2023-08-24T08:16:09;24.70;59.20
27671;DHT22;15077;49.704;9.908;2023-08-24T08:18:36;24.70;59.00
27671;DHT22;15077;49.704;9.908;2023-08-24T08:21:15;24.70;59.00
27671;DHT22;15077;49.704;9.908;2023-08-24T08:23:45;24.70;58.90
27671;DHT22;15077;49.704;9.908;2023-08-24T08:26:11;24.80;58.90
27671;DHT22;15077;49.704;9.908;2023-08-24T08:28:39;24.80;58.90
27671;DHT22;15077;49.704;9.908;2023-08-24T08:31:05;24.80;58.90
27671;DHT22;15077;49.704;9.908;2023-08-24T08:33:31;24.80;58.80
27671;DHT22;15077;49.704;9.908;2023-08-24T08:35:57;24.90;58.90
27671;DHT22;15077;49.704;9.908;2023-08-24T08:38:23;24.90;59.00
27671;DHT22;15077;49.704;9.908;2023-08-24T08:41:13;24.90;59.00
27671;DHT22;15077;49.704;9.908;2023-08-24T08:43:38;25.00;59.10
27671;DHT22;15077;49.704;9.908;2023-08-24T08:46:04;25.10;59.30
27671;DHT22;15077;49.704;9.908;2023-08-24T08:48:34;25.20;59.50
27671;DHT22;15077;49.704;9.908;2023-08-24T08:51:01;25.30;59.50
27671;DHT22;15077;49.704;9.908;2023-08-24T08:53:27;25.40;59.50
27671;DHT22;15077;49.704;9.908;2023-08-24T08:55:54;25.50;59.20
27671;DHT22;15077;49.704;9.908;2023-08-24T08:58:23;25.60;59.20
27671;DHT22;15077;49.704;9.908;2023-08-24T09:00:51;25.70;59.10
27671;DHT22;15077;49.704;9.908;2023-08-24T09:03:18;25.80;59.10
27671;DHT22;15077;49.704;9.908;2023-08-24T09:05:45;25.90;58.80
27671;DHT22;15077;49.704;9.908;2023-08-24T09:08:16;26.10;58.90
27671;DHT22;15077;49.704;9.908;2023-08-24T09:10:43;26.20;58.90
27671;DHT22;15077;49.704;9.908;2023-08-24T09:13:09;26.30;58.80
27671;DHT22;15077;49.704;9.908;2023-08-24T09:15:35;26.40;58.80
27671;DHT22;15077;49.704;9.908;2023-08-24T09:18:04;26.50;58.90
27671;DHT22;15077;49.704;9.908;2023-08-24T09:20:30;26.70;58.80
27671;DHT22;15077;49.704;9.908;2023-08-24T09:22:57;26.80;58.30
27671;DHT22;15077;49.704;9.908;2023-08-24T09:25:24;27.00;57.90
27671;DHT22;15077;49.704;9.908;2023-08-24T09:28:00;27.10;57.60
27671;DHT22;15077;49.704;9.908;2023-08-24T09:30:30;27.20;57.60
27671;DHT22;15077;49.704;9.908;2023-08-24T09:33:04;27.30;57.60
27671;DHT22;15077;49.704;9.908;2023-08-24T09:35:36;27.40;57.30
27671;DHT22;15077;49.704;9.908;2023-08-24T09:38:18;27.50;57.20
27671;DHT22;15077;49.704;9.908;2023-08-24T09:40:46;27.60;56.80
27671;DHT22;15077;49.704;9.908;2023-08-24T09:43:16;27.70;56.80
27671;DHT22;15077;49.704;9.908;2023-08-24T09:45:53;27.80;57.10
27671;DHT22;15077;49.704;9.908;2023-08-24T09:48:21;27.90;56.90
27671;DHT22;15077;49.704;9.908;2023-08-24T09:50:49;28.00;56.60
27671;DHT22;15077;49.704;9.908;2023-08-24T09:53:21;28.10;56.20
27671;DHT22;15077;49.704;9.908;2023-08-24T09:56:00;28.20;55.60
27671;DHT22;15077;49.704;9.908;2023-08-24T09:58:28;28.30;55.30
27671;DHT22;15077;49.704;9.908;2023-08-24T10:00:55;28.40;54.80
27671;DHT22;15077;49.704;9.908;2023-08-24T10:03:25;28.40;55.00
27671;DHT22;15077;49.704;9.908;2023-08-24T10:05:53;28.50;55.10
27671;DHT22;15077;49.704;9.908;2023-08-24T10:08:36;28.60;55.40
27671;DHT22;15077;49.704;9.908;2023-08-24T10:11:06;28.80;54.90
27671;DHT22;15077;49.704;9.908;2023-08-24T10:14:44;28.90;54.70
27671;DHT22;15077;49.704;9.908;2023-08-24T10:16:52;29.00;54.30
27671;DHT22;15077;49.704;9.908;2023-08-24T10:19:20;29.10;53.80
27671;DHT22;15077;49.704;9.908;2023-08-24T10:21:48;29.20;53.50
27671;DHT22;15077;49.704;9.908;2023-08-24T10:24:16;29.20;53.40
27671;DHT22;15077;49.704;9.908;2023-08-24T10:26:43;29.30;53.10
27671;DHT22;15077;49.704;9.908;2023-08-24T10:29:10;29.40;53.40
27671;DHT22;15077;49.704;9.908;2023-08-24T10:31:36;29.50;53.30
27671;DHT22;15077;49.704;9.908;2023-08-24T10:34:05;29.60;52.70
27671;DHT22;15077;49.704;9.908;2023-08-24T10:36:32;29.70;52.30
27671;DHT22;15077;49.704;9.908;2023-08-24T10:39:02;29.80;52.10
27671;DHT22;15077;49.704;9.908;2023-08-24T10:41:52;30.00;51.80
27671;DHT22;15077;49.704;9.908;2023-08-24T10:44:37;30.10;51.80
27671;DHT22;15077;49.704;9.908;2023-08-24T10:47:15;30.30;51.60
27671;DHT22;15077;49.704;9.908;2023-08-24T10:49:58;30.40;51.40
27671;DHT22;15077;49.704;9.908;2023-08-24T10:52:38;30.50;51.40
27671;DHT22;15077;49.704;9.908;2023-08-24T10:55:24;30.60;51.30
27671;DHT22;15077;49.704;9.908;2023-08-24T10:57:57;30.80;51.70
27671;DHT22;15077;49.704;9.908;2023-08-24T11:00:27;30.80;51.40
27671;DHT22;15077;49.704;9.908;2023-08-24T11:02:54;31.00;51.10
27671;DHT22;15077;49.704;9.908;2023-08-24T11:05:28;31.10;51.10
27671;DHT22;15077;49.704;9.908;2023-08-24T11:08:05;31.20;51.00
27671;DHT22;15077;49.704;9.908;2023-08-24T11:10:34;31.30;50.60
27671;DHT22;15077;49.704;9.908;2023-08-24T11:13:15;31.40;50.60
27671;DHT22;15077;49.704;9.908;2023-08-24T11:15:43;31.50;50.30
27671;DHT22;15077;49.704;9.908;2023-08-24T11:20:44;31.70;50.20
27671;DHT22;15077;49.704;9.908;2023-08-24T11:23:12;31.80;50.90
27671;DHT22;15077;49.704;9.908;2023-08-24T11:25:38;31.90;50.30
27671;DHT22;15077;49.704;9.908;2023-08-24T11:28:04;32.00;49.40
27671;DHT22;15077;49.704;9.908;2023-08-24T11:30:34;32.10;49.70
27671;DHT22;15077;49.704;9.908;2023-08-24T11:33:01;32.20;49.30
27671;DHT22;15077;49.704;9.908;2023-08-24T11:35:28;32.30;49.60
27671;DHT22;15077;49.704;9.908;2023-08-24T11:37:55;32.40;49.40
27671;DHT22;15077;49.704;9.908;2023-08-24T11:40:22;32.40;48.80
27671;DHT22;15077;49.704;9.908;2023-08-24T11:42:55;32.50;49.10
27671;DHT22;15077;49.704;9.908;2023-08-24T11:45:22;32.50;48.70
27671;DHT22;15077;49.704;9.908;2023-08-24T11:47:49;32.60;48.80
27671;DHT22;15077;49.704;9.908;2023-08-24T11:50:16;32.60;48.70
27671;DHT22;15077;49.704;9.908;2023-08-24T11:52:43;32.70;48.40
27671;DHT22;15077;49.704;9.908;2023-08-24T11:55:10;32.70;48.20
27671;DHT22;15077;49.704;9.908;2023-08-24T11:57:36;32.70;47.50
27671;DHT22;15077;49.704;9.908;2023-08-24T12:00:04;32.80;47.40
27671;DHT22;15077;49.704;9.908;2023-08-24T12:02:32;32.80;47.40
27671;DHT22;15077;49.704;9.908;2023-08-24T12:04:58;32.90;47.40
27671;DHT22;15077;49.704;9.908;2023-08-24T12:07:25;32.90;47.60
27671;DHT22;15077;49.704;9.908;2023-08-24T12:09:54;33.00;47.50
27671;DHT22;15077;49.704;9.908;2023-08-24T12:12:21;33.00;46.40
27671;DHT22;15077;49.704;9.908;2023-08-24T12:14:49;33.10;45.90
27671;DHT22;15077;49.704;9.908;2023-08-24T12:17:16;33.10;46.20
27671;DHT22;15077;49.704;9.908;2023-08-24T12:19:44;33.20;46.50
27671;DHT22;15077;49.704;9.908;2023-08-24T12:22:15;33.30;46.50
27671;DHT22;15077;49.704;9.908;2023-08-24T12:24:46;33.40;45.70
27671;DHT22;15077;49.704;9.908;2023-08-24T12:27:23;33.50;46.00
27671;DHT22;15077;49.704;9.908;2023-08-24T12:29:51;33.60;46.10
27671;DHT22;15077;49.704;9.908;2023-08-24T12:32:18;33.70;45.90
27671;DHT22;15077;49.704;9.908;2023-08-24T12:34:47;33.70;45.50
27671;DHT22;15077;49.704;9.908;2023-08-24T12:37:13;33.80;46.30
27671;DHT22;15077;49.704;9.908;2023-08-24T12:39:39;33.90;45.40
27671;DHT22;15077;49.704;9.908;2023-08-24T12:42:05;33.90;45.50
27671;DHT22;15077;49.704;9.908;2023-08-24T12:44:32;34.00;45.60
27671;DHT22;15077;49.704;9.908;2023-08-24T12:47:01;34.10;45.50
27671;DHT22;15077;49.704;9.908;2023-08-24T12:49:28;34.20;45.20
27671;DHT22;15077;49.704;9.908;2023-08-24T12:51:54;34.20;45.40
27671;DHT22;15077;49.704;9.908;2023-08-24T12:54:20;34.20;45.50
27671;DHT22;15077;49.704;9.908;2023-08-24T12:56:46;34.30;45.40
27671;DHT22;15077;49.704;9.908;2023-08-24T12:59:12;34.30;45.30
27671;DHT22;15077;49.704;9.908;2023-08-24T13:01:38;34.40;45.20
27671;DHT22;15077;49.704;9.908;2023-08-24T13:04:04;34.40;45.00
27671;DHT22;15077;49.704;9.908;2023-08-24T13:06:30;34.50;45.20
27671;DHT22;15077;49.704;9.908;2023-08-24T13:08:56;34.60;44.70
27671;DHT22;15077;49.704;9.908;2023-08-24T13:11:22;34.60;44.80
27671;DHT22;15077;49.704;9.908;2023-08-24T13:13:48;34.70;44.90
27671;DHT22;15077;49.704;9.908;2023-08-24T13:16:15;34.70;44.80
27671;DHT22;15077;49.704;9.908;2023-08-24T13:18:41;34.80;44.30
27671;DHT22;15077;49.704;9.908;2023-08-24T13:21:07;34.80;44.30
27671;DHT22;15077;49.704;9.908;2023-08-24T13:23:33;34.80;44.30
27671;DHT22;15077;49.704;9.908;2023-08-24T13:25:59;34.80;44.40
27671;DHT22;15077;49.704;9.908;2023-08-24T13:28:26;34.90;45.00
27671;DHT22;15077;49.704;9.908;2023-08-24T13:30:52;34.90;44.50
27671;DHT22;15077;49.704;9.908;2023-08-24T13:33:17;35.00;44.20
27671;DHT22;15077;49.704;9.908;2023-08-24T13:35:46;35.00;43.80
27671;DHT22;15077;49.704;9.908;2023-08-24T13:38:12;35.00;43.90
27671;DHT22;15077;49.704;9.908;2023-08-24T13:40:37;35.00;43.90
27671;DHT22;15077;49.704;9.908;2023-08-24T13:43:03;35.10;44.10
27671;DHT22;15077;49.704;9.908;2023-08-24T13:45:29;35.10;43.80
27671;DHT22;15077;49.704;9.908;2023-08-24T13:47:57;35.20;43.70
27671;DHT22;15077;49.704;9.908;2023-08-24T13:50:22;35.20;43.30
27671;DHT22;15077;49.704;9.908;2023-08-24T13:52:49;35.30;43.50
27671;DHT22;15077;49.704;9.908;2023-08-24T13:55:15;35.30;44.20
27671;DHT22;15077;49.704;9.908;2023-08-24T13:57:42;35.30;43.50
27671;DHT22;15077;49.704;9.908;2023-08-24T14:00:08;35.30;43.20
27671;DHT22;15077;49.704;9.908;2023-08-24T14:02:35;35.40;43.20
27671;DHT22;15077;49.704;9.908;2023-08-24T14:05:01;35.40;42.80
27671;DHT22;15077;49.704;9.908;2023-08-24T14:07:27;35.40;43.10
27671;DHT22;15077;49.704;9.908;2023-08-24T14:09:53;35.40;43.10
27671;DHT22;15077;49.704;9.908;2023-08-24T14:12:18;35.50;43.00
27671;DHT22;15077;49.704;9.908;2023-08-24T14:14:44;35.50;43.00
27671;DHT22;15077;49.704;9.908;2023-08-24T14:17:10;35.50;43.70
27671;DHT22;15077;49.704;9.908;2023-08-24T14:19:35;35.50;42.90
27671;DHT22;15077;49.704;9.908;2023-08-24T14:22:01;35.60;42.70
27671;DHT22;15077;49.704;9.908;2023-08-24T14:24:27;35.60;42.70
27671;DHT22;15077;49.704;9.908;2023-08-24T14:26:53;35.60;42.60
27671;DHT22;15077;49.704;9.908;2023-08-24T14:29:18;35.60;42.50
27671;DHT22;15077;49.704;9.908;2023-08-24T14:31:44;35.60;42.60
27671;DHT22;15077;49.704;9.908;2023-08-24T14:34:10;35.60;42.50
27671;DHT22;15077;49.704;9.908;2023-08-24T14:36:35;35.60;42.70
27671;DHT22;15077;49.704;9.908;2023-08-24T14:39:01;35.60;43.10
27671;DHT22;15077;49.704;9.908;2023-08-24T14:41:27;35.60;43.00
27671;DHT22;15077;49.704;9.908;2023-08-24T14:43:53;35.70;43.00
27671;DHT22;15077;49.704;9.908;2023-08-24T14:46:19;35.70;42.80
27671;DHT22;15077;49.704;9.908;2023-08-24T14:48:44;35.70;42.60
27671;DHT22;15077;49.704;9.908;2023-08-24T14:51:10;35.80;43.00
27671;DHT22;15077;49.704;9.908;2023-08-24T14:53:36;35.80;43.70
27671;DHT22;15077;49.704;9.908;2023-08-24T14:56:03;35.90;42.90
27671;DHT22;15077;49.704;9.908;2023-08-24T14:58:29;35.90;42.70
27671;DHT22;15077;49.704;9.908;2023-08-24T15:00:57;35.90;42.40
27671;DHT22;15077;49.704;9.908;2023-08-24T15:03:23;36.00;42.40
27671;DHT22;15077;49.704;9.908;2023-08-24T15:06:03;35.90;42.50
27671;DHT22;15077;49.704;9.908;2023-08-24T15:08:30;35.90;42.50
27671;DHT22;15077;49.704;9.908;2023-08-24T15:10:59;35.90;42.10
27671;DHT22;15077;49.704;9.908;2023-08-24T15:13:27;35.80;42.10
27671;DHT22;15077;49.704;9.908;2023-08-24T15:15:55;35.80;42.10
27671;DHT22;15077;49.704;9.908;2023-08-24T15:18:22;35.70;42.00
27671;DHT22;15077;49.704;9.908;2023-08-24T15:20:49;35.70;42.70
27671;DHT22;15077;49.704;9.908;2023-08-24T15:23:26;35.70;42.40
27671;DHT22;15077;49.704;9.908;2023-08-24T15:26:00;35.60;42.50
27671;DHT22;15077;49.704;9.908;2023-08-24T15:28:34;35.60;42.70
27671;DHT22;15077;49.704;9.908;2023-08-24T15:31:01;35.50;42.70
27671;DHT22;15077;49.704;9.908;2023-08-24T15:33:27;35.50;42.50
27671;DHT22;15077;49.704;9.908;2023-08-24T15:35:53;35.50;42.50
27671;DHT22;15077;49.704;9.908;2023-08-24T15:38:18;35.40;42.70
27671;DHT22;15077;49.704;9.908;2023-08-24T15:40:51;35.40;42.70